Time;durP1;ratioP1;P1;durP2;ratioP2;P2;SDS_P1;SDS_P2;PMS_P1;PMS_P2;Temp;Humidity;BMP_temperature;BMP_pressure;BME280_temperature;BME280_humidity;BME280_pressure;Samples;Min_cycle;Max_cycle;Signal;HPM_P1;HPM_P2
2023/05/24 00:00:36;;;;;;;17.80;12.63;;;;;;;-146.82;100.00;71671.09;5054686;28;20036;-77
2023/05/24 00:03:03;;;;;;;20.40;12.25;;;;;;;-146.82;100.00;71671.09;5051797;28;20033;-78
2023/05/24 00:05:29;;;;;;;15.45;12.50;;;;;;;-146.82;100.00;71671.09;5051426;28;20087;-76
2023/05/24 00:07:55;;;;;;;15.68;11.77;;;;;;;-146.82;100.00;71671.09;5049774;28;20058;-78
2023/05/24 00:10:21;;;;;;;14.18;9.88;;;;;;;-146.82;100.00;71671.09;5035136;28;20465;-78
2023/05/24 00:12:46;;;;;;;15.00;10.35;;;;;;;-146.82;100.00;71671.09;5053323;28;20510;-78
2023/05/24 00:15:12;;;;;;;12.32;9.32;;;;;;;-146.82;100.00;71671.09;5053068;28;20370;-78
2023/05/24 00:17:39;;;;;;;10.30;7.43;;;;;;;-146.82;100.00;71671.09;5052974;28;20031;-78
2023/05/24 00:20:09;;;;;;;7.28;6.55;;;;;;;-146.82;100.00;71671.09;5051692;28;20025;-77
2023/05/24 00:22:35;;;;;;;7.72;5.93;;;;;;;-146.82;100.00;71671.09;5052793;28;20366;-77
2023/05/24 00:25:01;;;;;;;9.30;3.83;;;;;;;-146.82;100.00;71671.09;5053021;28;20032;-76
2023/05/24 00:27:26;;;;;;;4.13;2.88;;;;;;;-146.82;100.00;71671.09;5053211;28;20390;-77
2023/05/24 00:29:51;;;;;;;3.03;2.70;;;;;;;-146.82;100.00;71671.09;5052984;28;20532;-77
2023/05/24 00:32:17;;;;;;;3.15;2.38;;;;;;;-146.82;100.00;71671.09;5034977;28;20036;-77
2023/05/24 00:34:42;;;;;;;2.70;2.10;;;;;;;-146.82;100.00;71671.09;5051469;28;20025;-76
2023/05/24 00:37:08;;;;;;;3.20;2.20;;;;;;;-146.82;100.00;71671.09;5052652;28;20025;-78
2023/05/24 00:39:33;;;;;;;2.35;2.17;;;;;;;-146.82;100.00;71671.09;5051517;28;20032;-78
2023/05/24 00:41:58;;;;;;;2.25;2.05;;;;;;;-146.82;100.00;71671.09;5052862;28;20029;-79
2023/05/24 00:44:24;;;;;;;4.20;2.40;;;;;;;-146.82;100.00;71671.09;5052595;28;20033;-77
2023/05/24 00:46:49;;;;;;;2.30;2.10;;;;;;;-146.82;100.00;71671.09;5052556;28;20028;-77
2023/05/24 00:49:15;;;;;;;2.00;1.80;;;;;;;-146.82;100.00;71671.09;5052621;28;20033;-77
2023/05/24 00:51:40;;;;;;;2.10;1.80;;;;;;;-146.82;100.00;71671.09;5052552;28;20355;-78
2023/05/24 00:54:06;;;;;;;2.25;1.92;;;;;;;-146.82;100.00;71671.09;5051126;28;20025;-77
2023/05/24 00:56:31;;;;;;;2.33;1.85;;;;;;;-146.82;100.00;71671.09;5051883;28;20029;-78
2023/05/24 00:58:57;;;;;;;2.22;1.80;;;;;;;-146.82;100.00;71671.09;5052257;28;20053;-77
2023/05/24 01:01:29;;;;;;;2.55;1.55;;;;;;;-146.82;100.00;71671.09;5052589;28;20036;-77
2023/05/24 01:03:56;;;;;;;5.82;2.00;;;;;;;-146.82;100.00;71671.09;5052637;28;20032;-77
2023/05/24 01:06:22;;;;;;;1.60;1.50;;;;;;;-146.82;100.00;71671.09;5052965;28;20052;-79
2023/05/24 01:09:20;;;;;;;1.80;1.70;;;;;;;-146.82;100.00;71671.09;5052259;28;20429;-78
2023/05/24 01:11:55;;;;;;;1.27;1.17;;;;;;;-146.82;100.00;71671.09;5054808;28;20070;-77
2023/05/24 01:14:36;;;;;;;1.10;1.00;;;;;;;-146.82;100.00;71671.09;5054993;28;20033;-76
2023/05/24 01:17:22;;;;;;;1.92;1.50;;;;;;;-146.82;100.00;71671.09;5055911;28;20095;-77
2023/05/24 01:19:50;;;;;;;1.67;1.45;;;;;;;-146.82;100.00;71671.09;5055240;28;20025;-77
2023/05/24 01:22:28;;;;;;;1.60;1.50;;;;;;;-146.82;100.00;71671.09;5055134;28;20028;-77
2023/05/24 01:25:01;;;;;;;2.33;1.30;;;;;;;-146.82;100.00;71671.09;5056179;28;20378;-77
2023/05/24 01:27:27;;;;;;;2.10;1.67;;;;;;;-146.82;100.00;71671.09;5056059;28;20039;-77
2023/05/24 01:29:52;;;;;;;1.45;1.35;;;;;;;-146.82;100.00;71671.09;5054578;28;20021;-77
2023/05/24 01:32:21;;;;;;;4.28;1.60;;;;;;;-146.82;100.00;71671.09;5035967;28;20063;-78
2023/05/24 01:34:46;;;;;;;1.52;1.42;;;;;;;-146.82;100.00;71671.09;5053829;28;20513;-77
2023/05/24 01:37:11;;;;;;;2.42;1.45;;;;;;;-146.82;100.00;71671.09;5053888;28;20044;-77
2023/05/24 01:39:37;;;;;;;2.17;1.88;;;;;;;-146.82;100.00;71671.09;5053682;28;20161;-77
2023/05/24 01:42:25;;;;;;;1.58;1.48;;;;;;;-146.82;100.00;71671.09;5052269;28;20448;-77
2023/05/24 01:45:12;;;;;;;3.90;1.90;;;;;;;-146.82;100.00;71671.09;5053555;28;20485;-78
2023/05/24 01:47:51;;;;;;;3.22;1.67;;;;;;;-146.82;100.00;71671.09;5053485;28;20099;-76
2023/05/24 01:50:38;;;;;;;4.40;2.25;;;;;;;-146.82;100.00;71671.09;5053933;28;20035;-76
2023/05/24 01:53:06;;;;;;;2.58;1.85;;;;;;;-146.82;100.00;71671.09;5052180;28;20128;-77
2023/05/24 01:55:32;;;;;;;2.83;2.25;;;;;;;-146.82;100.00;71671.09;5035516;28;20029;-77
2023/05/24 01:58:01;;;;;;;9.32;2.85;;;;;;;-146.82;100.00;71671.09;5051826;28;20586;-76
2023/05/24 02:00:28;;;;;;;2.45;2.15;;;;;;;-146.82;100.00;71671.09;5052290;28;20028;-75
2023/05/24 02:02:54;;;;;;;4.15;2.15;;;;;;;-146.82;100.00;71671.09;5055973;28;20115;-77
2023/05/24 02:05:20;;;;;;;5.35;2.67;;;;;;;-146.82;100.00;71671.09;5054183;28;20075;-78
2023/05/24 02:07:45;;;;;;;6.53;3.15;;;;;;;-146.82;100.00;71671.09;5055438;28;20065;-78
2023/05/24 02:10:11;;;;;;;6.40;2.55;;;;;;;-146.82;100.00;71671.09;5055123;28;20091;-77
2023/05/24 02:12:36;;;;;;;4.15;2.85;;;;;;;-146.82;100.00;71671.09;5055019;28;20039;-78
2023/05/24 02:15:02;;;;;;;5.05;3.20;;;;;;;-146.82;100.00;71671.09;5055254;28;20032;-77
2023/05/24 02:17:27;;;;;;;5.82;2.88;;;;;;;-146.82;100.00;71671.09;5055295;28;20060;-76
2023/05/24 02:19:52;;;;;;;6.63;3.60;;;;;;;-146.82;100.00;71671.09;5055028;28;20450;-76
2023/05/24 02:22:21;;;;;;;8.30;3.45;;;;;;;-146.82;100.00;71671.09;5053943;28;20060;-77
2023/05/24 02:24:47;;;;;;;5.97;3.40;;;;;;;-146.82;100.00;71671.09;5054574;28;20330;-77
2023/05/24 02:27:12;;;;;;;8.15;3.85;;;;;;;-146.82;100.00;71671.09;5037156;28;20021;-78
2023/05/24 02:29:37;;;;;;;8.13;3.13;;;;;;;-146.82;100.00;71671.09;5054964;28;20036;-76
2023/05/24 02:32:03;;;;;;;8.43;3.50;;;;;;;-146.82;100.00;71671.09;5054910;28;20064;-75
2023/05/24 02:34:28;;;;;;;5.88;3.45;;;;;;;-146.82;100.00;71671.09;5053317;28;20021;-77
2023/05/24 02:36:54;;;;;;;5.53;2.90;;;;;;;-146.82;100.00;71671.09;5054749;28;20514;-78
2023/05/24 02:39:20;;;;;;;4.97;2.35;;;;;;;-146.82;100.00;71671.09;5054931;28;20036;-77
2023/05/24 02:41:45;;;;;;;4.10;1.98;;;;;;;-146.82;100.00;71671.09;5036888;28;20247;-77
2023/05/24 02:44:11;;;;;;;4.75;2.05;;;;;;;-146.82;100.00;71671.09;5053210;28;20056;-76
2023/05/24 02:46:36;;;;;;;2.65;1.85;;;;;;;-146.82;100.00;71671.09;5036532;28;20048;-77
2023/05/24 02:49:02;;;;;;;5.15;2.03;;;;;;;-146.82;100.00;71671.09;5036769;28;20051;-77
2023/05/24 02:51:27;;;;;;;4.90;3.00;;;;;;;-146.82;100.00;71671.09;5054446;28;20052;-78
2023/05/24 02:53:53;;;;;;;8.57;2.50;;;;;;;-146.82;100.00;71671.09;5053406;28;20067;-78
2023/05/24 02:56:18;;;;;;;4.68;2.42;;;;;;;-146.82;100.00;71671.09;5053210;28;20025;-77
2023/05/24 02:58:43;;;;;;;9.65;2.17;;;;;;;-146.82;100.00;71671.09;5052940;28;20049;-76
2023/05/24 03:01:12;;;;;;;5.75;2.20;;;;;;;-146.82;100.00;71671.09;5053216;28;20071;-77
2023/05/24 03:03:38;;;;;;;7.45;2.67;;;;;;;-146.82;100.00;71671.09;5054106;28;20124;-78
2023/05/24 03:06:05;;;;;;;3.55;2.40;;;;;;;-146.82;100.00;71671.09;5054162;28;20039;-77
2023/05/24 03:08:31;;;;;;;4.95;2.40;;;;;;;-146.82;100.00;71671.09;5054348;28;20112;-76
2023/05/24 03:10:57;;;;;;;5.38;2.88;;;;;;;-146.82;100.00;71671.09;5036257;28;20079;-77
2023/05/24 03:13:22;;;;;;;8.30;3.10;;;;;;;-146.82;100.00;71671.09;5052945;28;20490;-77
2023/05/24 03:15:48;;;;;;;7.28;3.30;;;;;;;-146.82;100.00;71671.09;5054033;28;20037;-77
2023/05/24 03:18:13;;;;;;;4.93;2.92;;;;;;;-146.82;100.00;71671.09;5052683;28;20032;-76
2023/05/24 03:20:38;;;;;;;8.27;3.17;;;;;;;-146.82;100.00;71671.09;5054092;28;20025;-77
2023/05/24 03:23:04;;;;;;;7.97;4.00;;;;;;;-146.82;100.00;71671.09;5054297;28;20112;-76
2023/05/24 03:25:29;;;;;;;7.20;3.50;;;;;;;-146.82;100.00;71671.09;5053770;28;20394;-78
2023/05/24 03:27:55;;;;;;;5.85;4.05;;;;;;;-146.82;100.00;71671.09;5052690;28;20025;-77
2023/05/24 03:30:20;;;;;;;9.55;3.95;;;;;;;-146.82;100.00;71671.09;5052644;28;20091;-79
2023/05/24 03:32:46;;;;;;;8.88;4.20;;;;;;;-146.82;100.00;71671.09;5053622;28;20033;-78
2023/05/24 03:35:11;;;;;;;5.82;3.17;;;;;;;-146.82;100.00;71671.09;5054227;28;20029;-77
2023/05/24 03:37:37;;;;;;;5.88;3.53;;;;;;;-146.82;100.00;71671.09;5037088;28;20021;-78
2023/05/24 03:40:04;;;;;;;5.50;3.30;;;;;;;-146.82;100.00;71671.09;5054298;28;20029;-76
2023/05/24 03:42:29;;;;;;;9.23;3.28;;;;;;;-146.82;100.00;71671.09;5054454;28;20029;-78
2023/05/24 03:44:54;;;;;;;5.05;2.83;;;;;;;-146.82;100.00;71671.09;5053104;28;20094;-78
2023/05/24 03:47:20;;;;;;;4.60;3.10;;;;;;;-146.82;100.00;71671.09;5053371;28;20036;-78
2023/05/24 03:49:45;;;;;;;5.18;3.42;;;;;;;-146.82;100.00;71671.09;5052089;28;20389;-76
2023/05/24 03:52:11;;;;;;;8.35;3.70;;;;;;;-146.82;100.00;71671.09;5051937;28;20056;-77
2023/05/24 03:54:36;;;;;;;5.10;3.63;;;;;;;-146.82;100.00;71671.09;5053413;28;20405;-77
2023/05/24 03:57:02;;;;;;;4.78;3.40;;;;;;;-146.82;100.00;71671.09;5035500;28;20086;-77
2023/05/24 03:59:29;;;;;;;5.60;3.65;;;;;;;-146.82;100.00;71671.09;5052818;28;20478;-77
2023/05/24 04:01:55;;;;;;;7.05;3.47;;;;;;;-146.82;100.00;71671.09;5053026;28;20473;-77
2023/05/24 04:04:20;;;;;;;5.55;3.30;;;;;;;-146.82;100.00;71671.09;5052006;28;20056;-77
2023/05/24 04:06:46;;;;;;;6.10;3.17;;;;;;;-146.82;100.00;71671.09;5052215;28;20029;-77
2023/05/24 04:09:12;;;;;;;5.10;3.47;;;;;;;-146.82;100.00;71671.09;5053077;28;20121;-77
2023/05/24 04:11:37;;;;;;;5.15;3.20;;;;;;;-146.82;100.00;71671.09;5051739;28;20134;-77
2023/05/24 04:14:03;;;;;;;6.82;3.50;;;;;;;-146.82;100.00;71671.09;5051892;28;20036;-77
2023/05/24 04:16:32;;;;;;;7.20;3.70;;;;;;;-146.82;100.00;71671.09;5052805;28;20111;-76
2023/05/24 04:18:59;;;;;;;6.30;3.55;;;;;;;-146.82;100.00;71671.09;5053732;28;20029;-78
2023/05/24 04:21:25;;;;;;;7.20;3.67;;;;;;;-146.82;100.00;71671.09;5053014;28;20462;-77
2023/05/24 04:23:50;;;;;;;6.10;3.80;;;;;;;-146.82;100.00;71671.09;5051667;28;20032;-77
2023/05/24 04:26:16;;;;;;;8.15;3.80;;;;;;;-146.82;100.00;71671.09;5051535;28;20418;-77
2023/05/24 04:28:41;;;;;;;4.65;3.60;;;;;;;-146.82;100.00;71671.09;5052900;28;20025;-77
2023/05/24 04:31:09;;;;;;;5.55;3.63;;;;;;;-146.82;100.00;71671.09;5052981;28;20028;-79
2023/05/24 04:33:38;;;;;;;5.10;3.78;;;;;;;-146.82;100.00;71671.09;5035090;28;20025;-79
2023/05/24 04:36:04;;;;;;;9.48;4.00;;;;;;;-146.82;100.00;71671.09;5051660;28;20033;-79
2023/05/24 04:38:31;;;;;;;5.93;4.00;;;;;;;-146.82;100.00;71671.09;5052611;28;20017;-77
2023/05/24 04:40:58;;;;;;;5.78;4.75;;;;;;;-146.82;100.00;71671.09;5053058;28;20025;-78
2023/05/24 04:43:25;;;;;;;6.25;3.70;;;;;;;-146.82;100.00;71671.09;5052623;28;20056;-77
2023/05/24 04:45:52;;;;;;;8.45;4.15;;;;;;;-146.82;100.00;71671.09;5056307;28;20029;-78
2023/05/24 04:48:19;;;;;;;8.48;4.05;;;;;;;-146.82;100.00;71671.09;5055859;28;20048;-78
2023/05/24 04:50:46;;;;;;;7.45;4.30;;;;;;;-146.82;100.00;71671.09;5055677;28;20036;-79
2023/05/24 04:53:13;;;;;;;9.25;3.97;;;;;;;-146.82;100.00;71671.09;5056037;28;20116;-76
2023/05/24 04:55:40;;;;;;;7.22;4.25;;;;;;;-146.82;100.00;71671.09;5056913;28;20128;-78
2023/05/24 04:58:05;;;;;;;7.93;3.75;;;;;;;-146.82;100.00;71671.09;5038842;28;20458;-76
2023/05/24 05:00:31;;;;;;;7.18;3.33;;;;;;;-146.82;100.00;71671.09;5056881;28;20028;-76
2023/05/24 05:02:58;;;;;;;5.63;3.97;;;;;;;-146.82;100.00;71671.09;5056876;28;20037;-77
2023/05/24 05:05:26;;;;;;;8.70;3.78;;;;;;;-146.82;100.00;71671.09;5038792;28;20049;-78
2023/05/24 05:07:52;;;;;;;5.82;2.90;;;;;;;-146.82;100.00;71671.09;5056492;28;20032;-74
2023/05/24 05:10:18;;;;;;;5.70;3.45;;;;;;;-146.82;100.00;71671.09;5058224;28;20028;-75
2023/05/24 05:12:45;;;;;;;5.93;2.92;;;;;;;-146.82;100.00;71671.09;5056854;28;20088;-76
2023/05/24 05:15:12;;;;;;;6.95;3.25;;;;;;;-146.82;100.00;71671.09;5058426;28;20450;-76
2023/05/24 05:17:39;;;;;;;4.93;3.10;;;;;;;-146.82;100.00;71671.09;5060386;28;20375;-76
2023/05/24 05:20:06;;;;;;;4.50;3.53;;;;;;;-146.82;100.00;71671.09;5039138;28;20036;-76
2023/05/24 05:22:32;;;;;;;5.78;3.17;;;;;;;-146.82;100.00;71671.09;5056587;28;20359;-75
2023/05/24 05:24:58;;;;;;;6.88;2.97;;;;;;;-146.82;100.00;71671.09;5038552;28;20024;-76
2023/05/24 05:27:24;;;;;;;3.55;2.95;;;;;;;-146.82;100.00;71671.09;5054889;28;20079;-76
2023/05/24 05:29:49;;;;;;;7.43;3.40;;;;;;;-146.82;100.00;71671.09;5058196;28;20119;-78
2023/05/24 05:32:15;;;;;;;6.93;2.90;;;;;;;-146.82;100.00;71671.09;5056618;28;20418;-79
2023/05/24 05:34:40;;;;;;;6.88;3.50;;;;;;;-146.82;100.00;71671.09;5056174;28;20025;-75
2023/05/24 05:37:06;;;;;;;4.22;2.60;;;;;;;-146.82;100.00;71671.09;5038213;28;20542;-76
2023/05/24 05:39:32;;;;;;;6.13;2.63;;;;;;;-146.82;100.00;71671.09;5055861;28;20525;-77
2023/05/24 05:41:57;;;;;;;9.73;3.17;;;;;;;-146.82;100.00;71671.09;5055931;28;20123;-77
2023/05/24 05:44:23;;;;;;;8.93;3.00;;;;;;;-146.82;100.00;71671.09;5053096;28;20031;-78
2023/05/24 05:46:48;;;;;;;8.50;3.10;;;;;;;-146.82;100.00;71671.09;5053680;28;20029;-78
2023/05/24 05:49:17;;;;;;;5.93;3.30;;;;;;;-146.82;100.00;71671.09;5052293;28;20394;-76
2023/05/24 05:51:43;;;;;;;4.57;3.33;;;;;;;-146.82;100.00;71671.09;5053495;28;20025;-78
2023/05/24 05:54:13;;;;;;;6.63;3.40;;;;;;;-146.82;100.00;71671.09;5053439;28;20021;-77
2023/05/24 05:56:44;;;;;;;7.10;4.10;;;;;;;-146.82;100.00;71671.09;5053229;28;20083;-76
2023/05/24 05:59:15;;;;;;;6.43;3.93;;;;;;;-146.82;100.00;71671.09;5053335;28;20045;-76
2023/05/24 06:01:42;;;;;;;6.25;4.13;;;;;;;-146.82;100.00;71671.09;5055292;28;20017;-77
2023/05/24 06:04:07;;;;;;;8.98;4.35;;;;;;;-146.82;100.00;71671.09;5052087;28;20328;-76
2023/05/24 06:06:32;;;;;;;8.27;4.03;;;;;;;-146.82;100.00;71671.09;5035444;28;20120;-77
2023/05/24 06:08:59;;;;;;;10.55;4.15;;;;;;;-146.82;100.00;71671.09;5053209;28;20104;-77
2023/05/24 06:11:25;;;;;;;9.68;3.95;;;;;;;-146.82;100.00;71671.09;5053639;28;20029;-78
2023/05/24 06:13:51;;;;;;;7.25;4.18;;;;;;;-146.82;100.00;71671.09;5053201;28;20017;-77
2023/05/24 06:16:17;;;;;;;7.80;3.65;;;;;;;-146.82;100.00;71671.09;5051903;28;20024;-78
2023/05/24 06:18:42;;;;;;;8.68;3.70;;;;;;;-146.82;100.00;71671.09;5054831;28;20051;-78
2023/05/24 06:21:09;;;;;;;13.55;4.15;;;;;;;-146.82;100.00;71671.09;5055185;28;20054;-79
2023/05/24 06:23:36;;;;;;;9.93;3.83;;;;;;;-146.82;100.00;71671.09;5053765;28;20094;-80
2023/05/24 06:26:02;;;;;;;12.45;4.10;;;;;;;-146.82;100.00;71671.09;5054047;28;20466;-79
2023/05/24 06:28:27;;;;;;;8.20;4.00;;;;;;;-146.82;100.00;71671.09;5055102;28;20036;-78
2023/05/24 06:30:53;;;;;;;13.23;3.85;;;;;;;-146.82;100.00;71671.09;5055256;28;20021;-77
2023/05/24 06:33:18;;;;;;;11.93;3.05;;;;;;;-146.82;100.00;71671.09;5054016;28;20115;-77
2023/05/24 06:35:44;;;;;;;19.30;4.18;;;;;;;-146.82;100.00;71671.09;5055527;28;20074;-78
2023/05/24 06:38:10;;;;;;;9.70;4.05;;;;;;;-146.82;100.00;71671.09;5049357;28;20533;-76
2023/05/24 06:40:35;;;;;;;7.15;3.10;;;;;;;-146.82;100.00;71671.09;5054311;28;20116;-79
2023/05/24 06:43:01;;;;;;;10.35;3.13;;;;;;;-146.82;100.00;71671.09;5075221;28;20107;-79
2023/05/24 06:45:26;;;;;;;11.25;3.28;;;;;;;-146.82;100.00;71671.09;5075203;28;20199;-80
2023/05/24 06:47:52;;;;;;;9.40;3.30;;;;;;;-146.82;100.00;71671.09;5074750;28;20016;-80
2023/05/24 06:50:17;;;;;;;7.85;2.95;;;;;;;-146.82;100.00;71671.09;5072873;28;20032;-79
2023/05/24 06:52:44;;;;;;;11.38;3.47;;;;;;;-146.82;100.00;71671.09;5053504;28;20104;-78
2023/05/24 06:55:09;;;;;;;8.85;3.13;;;;;;;-146.82;100.00;71671.09;5054238;28;20397;-78
2023/05/24 06:57:36;;;;;;;7.22;2.90;;;;;;;-146.82;100.00;71671.09;5053104;28;20504;-78
2023/05/24 07:00:07;;;;;;;6.78;2.92;;;;;;;-146.82;100.00;71671.09;5054809;28;20035;-78
2023/05/24 07:02:33;;;;;;;13.52;3.03;;;;;;;-146.82;100.00;71671.09;5055552;28;20052;-78
2023/05/24 07:05:00;;;;;;;11.63;3.53;;;;;;;-146.82;100.00;71671.09;5053810;28;20024;-78
2023/05/24 07:07:26;;;;;;;15.85;3.20;;;;;;;-146.82;100.00;71671.09;5051570;28;20029;-78
2023/05/24 07:09:52;;;;;;;9.18;3.00;;;;;;;-146.82;100.00;71671.09;5052999;28;20051;-76
2023/05/24 07:12:17;;;;;;;12.10;3.40;;;;;;;-146.82;100.00;71671.09;5053066;28;20057;-77
2023/05/24 07:14:44;;;;;;;15.77;4.03;;;;;;;-146.82;100.00;71671.09;5051758;28;20323;-74
2023/05/24 07:17:10;;;;;;;17.08;4.55;;;;;;;-146.82;100.00;71671.09;5053349;28;20020;-77
2023/05/24 07:19:36;;;;;;;10.27;3.58;;;;;;;-146.82;100.00;71671.09;5053593;28;20017;-76
2023/05/24 07:22:03;;;;;;;12.13;3.58;;;;;;;-146.82;100.00;71671.09;5053968;28;20025;-76
2023/05/24 07:24:29;;;;;;;9.60;3.65;;;;;;;-146.82;100.00;71671.09;5054133;28;20020;-75
2023/05/24 07:26:56;;;;;;;10.52;3.45;;;;;;;-146.82;100.00;71671.09;5053164;28;20210;-75
2023/05/24 07:29:22;;;;;;;9.77;3.50;;;;;;;-146.82;100.00;71671.09;5052917;28;20024;-76
2023/05/24 07:31:48;;;;;;;12.88;3.60;;;;;;;-146.82;100.00;71671.09;5051134;28;20045;-75
2023/05/24 07:34:14;;;;;;;17.90;3.88;;;;;;;-146.82;100.00;71671.09;5052630;28;20400;-75
2023/05/24 07:36:41;;;;;;;10.13;3.63;;;;;;;-146.82;100.00;71671.09;5035555;28;20029;-76
2023/05/24 07:39:08;;;;;;;10.10;3.63;;;;;;;-146.82;100.00;71671.09;5052546;28;20470;-77
2023/05/24 07:41:36;;;;;;;10.93;4.32;;;;;;;-146.82;100.00;71671.09;5053463;28;20041;-75
2023/05/24 07:44:04;;;;;;;9.75;4.07;;;;;;;-146.82;100.00;71671.09;5055054;28;20018;-75
2023/05/24 07:46:29;;;;;;;8.38;4.45;;;;;;;-146.82;100.00;71671.09;5053835;28;20043;-75
2023/05/24 07:48:56;;;;;;;11.55;4.50;;;;;;;-146.82;100.00;71671.09;5053900;28;20104;-74
2023/05/24 07:51:22;;;;;;;13.30;4.75;;;;;;;-146.82;100.00;71671.09;5052411;28;20374;-76
2023/05/24 07:53:48;;;;;;;13.57;4.63;;;;;;;-146.82;100.00;71671.09;5053599;28;20033;-77
2023/05/24 07:56:15;;;;;;;8.77;3.78;;;;;;;-146.82;100.00;71671.09;5052319;28;20060;-76
2023/05/24 07:58:44;;;;;;;14.65;4.57;;;;;;;-146.82;100.00;71671.09;5051581;28;20454;-75
2023/05/24 08:01:10;;;;;;;8.88;5.63;;;;;;;-146.82;100.00;71671.09;5053224;28;20032;-77
2023/05/24 08:03:36;;;;;;;9.65;5.28;;;;;;;-146.82;100.00;71671.09;5053251;28;20017;-75
2023/05/24 08:06:17;;;;;;;16.85;5.38;;;;;;;-146.82;100.00;71671.09;5053151;28;20470;-74
2023/05/24 08:08:44;;;;;;;11.73;4.65;;;;;;;-146.82;100.00;71671.09;5053155;28;20025;-75
2023/05/24 08:11:11;;;;;;;9.38;4.10;;;;;;;-146.82;100.00;71671.09;5053244;28;20123;-75
2023/05/24 08:13:36;;;;;;;13.65;5.03;;;;;;;-146.82;100.00;71671.09;5053168;28;20028;-74
2023/05/24 08:16:04;;;;;;;10.57;3.90;;;;;;;-146.82;100.00;71671.09;5051920;28;20107;-76
2023/05/24 08:18:29;;;;;;;12.98;4.32;;;;;;;-146.82;100.00;71671.09;5051916;28;20074;-77
2023/05/24 08:20:56;;;;;;;12.18;4.00;;;;;;;-146.82;100.00;71671.09;5053468;28;20414;-78
2023/05/24 08:23:21;;;;;;;11.60;4.43;;;;;;;-146.82;100.00;71671.09;5053349;28;20474;-77
2023/05/24 08:25:47;;;;;;;11.88;4.53;;;;;;;-146.82;100.00;71671.09;5053787;28;20060;-78
2023/05/24 08:28:15;;;;;;;13.48;4.80;;;;;;;-146.82;100.00;71671.09;5053053;28;20442;-75
2023/05/24 08:30:42;;;;;;;14.93;5.13;;;;;;;-146.82;100.00;71671.09;5053027;28;20432;-77
2023/05/24 08:33:09;;;;;;;10.02;4.15;;;;;;;-146.82;100.00;71671.09;5053017;28;20523;-74
2023/05/24 08:35:37;;;;;;;12.43;4.53;;;;;;;-146.82;100.00;71671.09;5051912;28;20481;-73
2023/05/24 08:38:05;;;;;;;13.57;4.60;;;;;;;-146.82;100.00;71671.09;5052874;28;20025;-74
2023/05/24 08:40:31;;;;;;;14.13;4.45;;;;;;;-146.82;100.00;71671.09;5051409;28;20029;-74
2023/05/24 08:43:00;;;;;;;14.82;4.45;;;;;;;-146.82;100.00;71671.09;5047215;28;20382;-75
2023/05/24 08:45:29;;;;;;;8.98;4.03;;;;;;;-146.82;100.00;71671.09;5052122;28;20146;-74
2023/05/24 08:47:54;;;;;;;11.52;3.90;;;;;;;-146.82;100.00;71671.09;5034088;28;20083;-74
2023/05/24 08:50:21;;;;;;;11.85;3.95;;;;;;;-146.82;100.00;71671.09;5051865;28;20421;-75
2023/05/24 08:52:48;;;;;;;13.15;4.13;;;;;;;-146.82;100.00;71671.09;5033900;28;20033;-74
2023/05/24 08:55:16;;;;;;;10.40;3.42;;;;;;;-146.82;100.00;71671.09;5034029;28;20033;-75
2023/05/24 08:57:43;;;;;;;10.93;3.72;;;;;;;-146.82;100.00;71671.09;5049829;28;20042;-75
2023/05/24 09:00:11;;;;;;;11.40;4.53;;;;;;;-146.82;100.00;71671.09;5049959;28;20041;-75
2023/05/24 09:02:45;;;;;;;14.52;4.18;;;;;;;-146.82;100.00;71671.09;5049442;28;20021;-77
2023/05/24 09:05:27;;;;;;;9.65;4.10;;;;;;;-146.82;100.00;71671.09;5050561;28;20033;-75
2023/05/24 09:07:54;;;;;;;11.97;4.20;;;;;;;-146.82;100.00;71671.09;5050176;28;20029;-75
2023/05/24 09:10:29;;;;;;;9.98;3.95;;;;;;;-146.82;100.00;71671.09;5049922;28;20033;-75
2023/05/24 09:12:57;;;;;;;10.05;3.72;;;;;;;-146.82;100.00;71671.09;5051659;28;20045;-74
2023/05/24 09:15:22;;;;;;;12.18;4.13;;;;;;;-146.82;100.00;71671.09;5050138;28;20044;-74
2023/05/24 09:17:48;;;;;;;10.02;4.38;;;;;;;-146.82;100.00;71671.09;5050236;28;20029;-74
2023/05/24 09:20:13;;;;;;;16.50;5.15;;;;;;;-146.82;100.00;71671.09;5051598;28;20033;-76
2023/05/24 09:22:52;;;;;;;8.32;4.07;;;;;;;-146.82;100.00;71671.09;5051717;28;20049;-77
2023/05/24 09:25:20;;;;;;;11.13;4.43;;;;;;;-146.82;100.00;71671.09;5050016;28;20551;-74
2023/05/24 09:27:57;;;;;;;13.38;4.35;;;;;;;-146.82;100.00;71671.09;5051730;28;20021;-74
2023/05/24 09:30:23;;;;;;;10.45;4.03;;;;;;;-146.82;100.00;71671.09;5050712;28;20032;-73
2023/05/24 09:33:15;;;;;;;12.52;4.13;;;;;;;-146.82;100.00;71671.09;5054782;28;20531;-75
2023/05/24 09:35:42;;;;;;;;;;;;;;;-146.82;100.00;71671.09;5052903;28;20173;-75
2023/05/24 09:38:18;;;;;;;10.98;4.22;;;;;;;-146.82;100.00;71671.09;5054286;28;19912;-75
2023/05/24 09:40:45;;;;;;;9.35;3.72;;;;;;;-146.82;100.00;71671.09;5053678;28;20029;-73
2023/05/24 09:43:12;;;;;;;6.97;3.90;;;;;;;-146.82;100.00;71671.09;5054157;28;20048;-74
2023/05/24 09:45:45;;;;;;;11.98;4.10;;;;;;;-146.82;100.00;71671.09;5055346;28;20417;-73
2023/05/24 09:48:25;;;;;;;7.72;3.67;;;;;;;-146.82;100.00;71671.09;5034007;28;20030;-74
2023/05/24 09:51:12;;;;;;;9.90;4.38;;;;;;;-146.82;100.00;71671.09;5035025;28;20037;-76
2023/05/24 09:53:43;;;;;;;12.25;4.63;;;;;;;-146.82;100.00;71671.09;5018721;28;20039;-74
2023/05/24 09:56:10;;;;;;;8.80;4.53;;;;;;;-146.82;100.00;71671.09;5033772;28;20453;-73
2023/05/24 09:58:35;;;;;;;8.68;4.00;;;;;;;-146.82;100.00;71671.09;5034470;28;20529;-74
2023/05/24 10:01:06;;;;;;;7.53;4.22;;;;;;;-146.82;100.00;71671.09;5034245;28;20025;-75
2023/05/24 10:03:33;;;;;;;10.18;4.63;;;;;;;-146.82;100.00;71671.09;5034391;28;20544;-73
2023/05/24 10:05:58;;;;;;;11.10;4.38;;;;;;;-146.82;100.00;71671.09;5032959;28;20045;-79
2023/05/24 10:08:25;;;;;;;6.85;4.25;;;;;;;-146.82;100.00;71671.09;5034079;28;20103;-76
2023/05/24 10:10:54;;;;;;;8.60;4.47;;;;;;;-146.82;100.00;71671.09;5034412;28;20041;-73
2023/05/24 10:13:22;;;;;;;8.85;4.35;;;;;;;-146.82;100.00;71671.09;5046795;28;20033;-74
2023/05/24 10:15:48;;;;;;;15.88;4.97;;;;;;;-146.82;100.00;71671.09;5070328;28;20477;-75
2023/05/24 10:18:14;;;;;;;10.25;4.38;;;;;;;-146.82;100.00;71671.09;5074635;28;20216;-75
2023/05/24 10:20:40;;;;;;;11.82;4.47;;;;;;;-146.82;100.00;71671.09;5074311;28;20048;-74
2023/05/24 10:23:22;;;;;;;14.02;5.25;;;;;;;-146.82;100.00;71671.09;5073869;28;20028;-72
2023/05/24 10:26:14;;;;;;;13.18;4.30;;;;;;;-146.82;100.00;71671.09;5073958;28;20052;-74
2023/05/24 10:28:53;;;;;;;9.32;4.50;;;;;;;-146.82;100.00;71671.09;5058894;28;20037;-75
2023/05/24 10:31:44;;;;;;;8.85;4.60;;;;;;;-146.82;100.00;71671.09;5055366;28;20513;-76
2023/05/24 10:34:10;;;;;;;12.97;4.57;;;;;;;-146.82;100.00;71671.09;5075102;28;20029;-73
2023/05/24 10:36:39;;;;;;;8.85;4.82;;;;;;;-146.82;100.00;71671.09;5074294;28;20035;-75
2023/05/24 10:39:23;;;;;;;8.82;4.85;;;;;;;-146.82;100.00;71671.09;5075358;28;20028;-73
2023/05/24 10:41:50;;;;;;;12.68;4.90;;;;;;;-146.82;100.00;71671.09;5072743;28;20036;-75
2023/05/24 10:44:31;;;;;;;10.02;4.65;;;;;;;-146.82;100.00;71671.09;5073274;28;20394;-72
2023/05/24 10:47:11;;;;;;;9.40;4.57;;;;;;;-146.82;100.00;71671.09;5056721;28;20035;-76
2023/05/24 10:49:56;;;;;;;15.43;4.97;;;;;;;-146.82;100.00;71671.09;5074138;28;20116;-74
2023/05/24 10:52:34;;;;;;;9.32;4.10;;;;;;;-146.82;100.00;71671.09;5073685;28;20366;-74
2023/05/24 10:55:10;;;;;;;15.43;4.90;;;;;;;-146.82;100.00;71671.09;5073685;28;20036;-75
2023/05/24 10:57:38;;;;;;;12.48;4.57;;;;;;;-146.82;100.00;71671.09;5073481;28;20427;-74
2023/05/24 11:00:27;;;;;;;8.60;4.53;;;;;;;-146.82;100.00;71671.09;5073935;28;20079;-75
2023/05/24 11:03:01;;;;;;;13.95;4.97;;;;;;;-146.82;100.00;71671.09;5074864;28;20538;-75
2023/05/24 11:05:47;;;;;;;8.93;4.95;;;;;;;-146.82;100.00;71671.09;5074872;28;20052;-76
2023/05/24 11:08:14;;;;;;;11.98;4.50;;;;;;;-146.82;100.00;71671.09;5074673;28;20036;-74
2023/05/24 11:10:41;;;;;;;13.05;5.07;;;;;;;-146.82;100.00;71671.09;5073299;28;20045;-75